sensor_id;sensor_type;location;lat;lon;timestamp;pressure;altitude;pressure_sealevel;temperature;humidity
64739;BME280;51175;51.186;0.276;2023-07-02T00:00:10;100623.38;;;22.75;48.60
64739;BME280;51175;51.186;0.276;2023-07-02T00:00:40;100625.28;;;22.74;48.50
64739;BME280;51175;51.186;0.276;2023-07-02T00:01:10;100629.56;;;22.75;48.62
64739;BME280;51175;51.186;0.276;2023-07-02T00:01:41;100628.75;;;22.75;48.59
64739;BME280;51175;51.186;0.276;2023-07-02T00:02:11;100621.81;;;22.74;48.46
64739;BME280;51175;51.186;0.276;2023-07-02T00:02:42;100627.19;;;22.74;48.68
64739;BME280;51175;51.186;0.276;2023-07-02T00:03:12;100632.59;;;22.74;48.60
64739;BME280;51175;51.186;0.276;2023-07-02T00:03:42;100624.50;;;22.74;48.60
64739;BME280;51175;51.186;0.276;2023-07-02T00:04:14;100623.72;;;22.73;48.64
64739;BME280;51175;51.186;0.276;2023-07-02T00:04:46;100630.66;;;22.74;48.34
64739;BME280;51175;51.186;0.276;2023-07-02T00:05:17;100621.03;;;22.73;48.70
64739;BME280;51175;51.186;0.276;2023-07-02T00:05:48;100626.41;;;22.73;48.70
64739;BME280;51175;51.186;0.276;2023-07-02T00:06:21;100626.41;;;22.73;48.76
64739;BME280;51175;51.186;0.276;2023-07-02T00:06:51;100627.53;;;22.72;48.72
64739;BME280;51175;51.186;0.276;2023-07-02T00:07:22;100625.94;;;22.71;48.76
64739;BME280;51175;51.186;0.276;2023-07-02T00:07:52;100626.75;;;22.72;48.82
64739;BME280;51175;51.186;0.276;2023-07-02T00:08:22;100629.44;;;22.72;48.70
64739;BME280;51175;51.186;0.276;2023-07-02T00:08:53;100634.03;;;22.71;48.87
64739;BME280;51175;51.186;0.276;2023-07-02T00:09:23;100630.56;;;22.71;48.75
64739;BME280;51175;51.186;0.276;2023-07-02T00:09:54;100630.56;;;22.71;48.72
64739;BME280;51175;51.186;0.276;2023-07-02T00:10:25;100632.47;;;22.70;48.87
64739;BME280;51175;51.186;0.276;2023-07-02T00:10:55;100624.41;;;22.70;48.84
64739;BME280;51175;51.186;0.276;2023-07-02T00:11:26;100623.59;;;22.69;48.69
64739;BME280;51175;51.186;0.276;2023-07-02T00:11:56;100637.06;;;22.69;48.83
64739;BME280;51175;51.186;0.276;2023-07-02T00:12:27;100638.97;;;22.69;48.77
64739;BME280;51175;51.186;0.276;2023-07-02T00:12:57;100632.81;;;22.68;48.81
64739;BME280;51175;51.186;0.276;2023-07-02T00:13:27;100632.00;;;22.68;48.73
64739;BME280;51175;51.186;0.276;2023-07-02T00:13:58;100639.31;;;22.67;48.54
64739;BME280;51175;51.186;0.276;2023-07-02T00:14:28;100635.84;;;22.67;48.77
64739;BME280;51175;51.186;0.276;2023-07-02T00:15:00;100633.16;;;22.67;48.92
64739;BME280;51175;51.186;0.276;2023-07-02T00:15:31;100636.63;;;22.67;48.91
64739;BME280;51175;51.186;0.276;2023-07-02T00:16:01;100633.16;;;22.67;48.63
64739;BME280;51175;51.186;0.276;2023-07-02T00:16:33;100642.00;;;22.67;48.85
64739;BME280;51175;51.186;0.276;2023-07-02T00:17:03;100635.84;;;22.67;48.86
64739;BME280;51175;51.186;0.276;2023-07-02T00:17:34;100643.13;;;22.66;48.87
64739;BME280;51175;51.186;0.276;2023-07-02T00:18:04;100639.63;;;22.66;48.95
64739;BME280;51175;51.186;0.276;2023-07-02T00:18:34;100639.63;;;22.66;48.87
64739;BME280;51175;51.186;0.276;2023-07-02T00:19:05;100639.63;;;22.66;48.88
64739;BME280;51175;51.186;0.276;2023-07-02T00:19:36;100638.06;;;22.65;48.92
64739;BME280;51175;51.186;0.276;2023-07-02T00:20:07;100638.06;;;22.65;48.73
64739;BME280;51175;51.186;0.276;2023-07-02T00:20:38;100635.38;;;22.65;48.89
64739;BME280;51175;51.186;0.276;2023-07-02T00:21:11;100641.91;;;22.64;48.92
64739;BME280;51175;51.186;0.276;2023-07-02T00:21:43;100632.25;;;22.63;48.81
64739;BME280;51175;51.186;0.276;2023-07-02T00:22:16;100634.16;;;22.62;48.76
64739;BME280;51175;51.186;0.276;2023-07-02T00:22:48;100640.31;;;22.63;48.82
64739;BME280;51175;51.186;0.276;2023-07-02T00:23:18;100637.63;;;22.63;49.01
64739;BME280;51175;51.186;0.276;2023-07-02T00:23:50;100632.25;;;22.63;48.73
64739;BME280;51175;51.186;0.276;2023-07-02T00:24:20;100638.75;;;22.62;49.04
64739;BME280;51175;51.186;0.276;2023-07-02T00:24:51;100641.44;;;22.62;48.90
64739;BME280;51175;51.186;0.276;2023-07-02T00:25:21;100639.88;;;22.61;48.93
64739;BME280;51175;51.186;0.276;2023-07-02T00:25:52;100638.75;;;22.62;48.99
64739;BME280;51175;51.186;0.276;2023-07-02T00:26:26;100646.81;;;22.62;49.18
64739;BME280;51175;51.186;0.276;2023-07-02T00:26:57;100645.28;;;22.61;48.87
64739;BME280;51175;51.186;0.276;2023-07-02T00:27:28;100639.88;;;22.61;48.96
64739;BME280;51175;51.186;0.276;2023-07-02T00:27:58;100637.19;;;22.61;48.99
64739;BME280;51175;51.186;0.276;2023-07-02T00:28:28;100639.41;;;22.58;48.77
64739;BME280;51175;51.186;0.276;2023-07-02T00:28:59;100640.22;;;22.59;48.98
64739;BME280;51175;51.186;0.276;2023-07-02T00:29:29;100634.03;;;22.58;49.05
64739;BME280;51175;51.186;0.276;2023-07-02T00:29:59;100638.59;;;22.58;49.12
64739;BME280;51175;51.186;0.276;2023-07-02T00:30:30;100640.53;;;22.57;49.02
64739;BME280;51175;51.186;0.276;2023-07-02T00:31:00;100636.25;;;22.56;48.99
64739;BME280;51175;51.186;0.276;2023-07-02T00:31:32;100635.50;;;22.56;48.99
64739;BME280;51175;51.186;0.276;2023-07-02T00:32:04;100635.50;;;22.56;49.03
64739;BME280;51175;51.186;0.276;2023-07-02T00:32:34;100638.94;;;22.56;48.79
64739;BME280;51175;51.186;0.276;2023-07-02T00:33:05;100637.38;;;22.55;48.97
64739;BME280;51175;51.186;0.276;2023-07-02T00:33:35;100631.22;;;22.55;48.95
64739;BME280;51175;51.186;0.276;2023-07-02T00:34:05;100636.25;;;22.56;48.86
64739;BME280;51175;51.186;0.276;2023-07-02T00:34:36;100642.78;;;22.55;48.78
64739;BME280;51175;51.186;0.276;2023-07-02T00:35:06;100632.00;;;22.55;49.03
64739;BME280;51175;51.186;0.276;2023-07-02T00:35:37;100638.53;;;22.54;49.10
64739;BME280;51175;51.186;0.276;2023-07-02T00:36:07;100637.72;;;22.54;49.02
64739;BME280;51175;51.186;0.276;2023-07-02T00:36:44;100641.22;;;22.54;49.00
64739;BME280;51175;51.186;0.276;2023-07-02T00:37:15;100637.72;;;22.54;49.04
64739;BME280;51175;51.186;0.276;2023-07-02T00:37:45;100636.94;;;22.53;48.98
64739;BME280;51175;51.186;0.276;2023-07-02T00:38:15;100642.31;;;22.53;49.04
64739;BME280;51175;51.186;0.276;2023-07-02T00:38:47;100636.94;;;22.53;48.86
64739;BME280;51175;51.186;0.276;2023-07-02T00:39:18;100633.47;;;22.53;49.10
64739;BME280;51175;51.186;0.276;2023-07-02T00:39:48;100638.84;;;22.53;49.07
64739;BME280;51175;51.186;0.276;2023-07-02T00:40:18;100638.84;;;22.53;49.07
64739;BME280;51175;51.186;0.276;2023-07-02T00:40:49;100641.53;;;22.53;49.13
64739;BME280;51175;51.186;0.276;2023-07-02T00:41:19;100634.56;;;22.52;48.87
64739;BME280;51175;51.186;0.276;2023-07-02T00:41:50;100634.91;;;22.50;48.87
64739;BME280;51175;51.186;0.276;2023-07-02T00:42:21;100631.47;;;22.50;48.97
64739;BME280;51175;51.186;0.276;2023-07-02T00:42:53;100634.16;;;22.50;49.18
64739;BME280;51175;51.186;0.276;2023-07-02T00:43:23;100634.91;;;22.50;49.20
64739;BME280;51175;51.186;0.276;2023-07-02T00:43:54;100630.66;;;22.49;49.08
64739;BME280;51175;51.186;0.276;2023-07-02T00:44:24;100636.03;;;22.49;49.04
64739;BME280;51175;51.186;0.276;2023-07-02T00:44:55;100635.25;;;22.49;49.10
64739;BME280;51175;51.186;0.276;2023-07-02T00:45:27;100626.41;;;22.48;48.93
64739;BME280;51175;51.186;0.276;2023-07-02T00:45:57;100630.66;;;22.49;48.99
64739;BME280;51175;51.186;0.276;2023-07-02T00:46:31;100628.31;;;22.48;49.04
64739;BME280;51175;51.186;0.276;2023-07-02T00:47:01;100626.75;;;22.47;48.89
64739;BME280;51175;51.186;0.276;2023-07-02T00:47:35;100634.03;;;22.46;49.15
64739;BME280;51175;51.186;0.276;2023-07-02T00:48:06;100632.91;;;22.47;48.94
64739;BME280;51175;51.186;0.276;2023-07-02T00:48:38;100631.34;;;22.46;49.27
64739;BME280;51175;51.186;0.276;2023-07-02T00:49:09;100633.25;;;22.45;49.17
64739;BME280;51175;51.186;0.276;2023-07-02T00:49:40;100632.47;;;22.45;49.14
64739;BME280;51175;51.186;0.276;2023-07-02T00:50:11;100627.09;;;22.45;49.09
64739;BME280;51175;51.186;0.276;2023-07-02T00:50:41;100630.13;;;22.43;49.37
64739;BME280;51175;51.186;0.276;2023-07-02T00:51:17;100638.19;;;22.43;49.03
64739;BME280;51175;51.186;0.276;2023-07-02T00:51:48;100633.56;;;22.44;49.10
64739;BME280;51175;51.186;0.276;2023-07-02T00:52:19;100633.91;;;22.42;49.19
64739;BME280;51175;51.186;0.276;2023-07-02T00:52:50;100642.00;;;22.42;49.31
64739;BME280;51175;51.186;0.276;2023-07-02T00:53:20;100634.25;;;22.41;49.39
64739;BME280;51175;51.186;0.276;2023-07-02T00:53:53;100625.41;;;22.40;49.14
64739;BME280;51175;51.186;0.276;2023-07-02T00:54:28;100628.88;;;22.41;49.56
64739;BME280;51175;51.186;0.276;2023-07-02T00:54:58;100623.81;;;22.39;49.24
64739;BME280;51175;51.186;0.276;2023-07-02T00:55:29;100630.00;;;22.40;49.22
64739;BME280;51175;51.186;0.276;2023-07-02T00:55:59;100631.91;;;22.39;49.33
64739;BME280;51175;51.186;0.276;2023-07-02T00:56:29;100633.81;;;22.39;49.23
64739;BME280;51175;51.186;0.276;2023-07-02T00:57:00;100629.53;;;22.38;49.08
64739;BME280;51175;51.186;0.276;2023-07-02T00:57:33;100632.22;;;22.38;49.41
64739;BME280;51175;51.186;0.276;2023-07-02T00:58:04;100634.16;;;22.37;49.24
64739;BME280;51175;51.186;0.276;2023-07-02T00:58:42;100627.97;;;22.37;49.23
64739;BME280;51175;51.186;0.276;2023-07-02T00:59:20;100631.47;;;22.37;49.21
64739;BME280;51175;51.186;0.276;2023-07-02T00:59:51;100636.06;;;22.37;49.41
64739;BME280;51175;51.186;0.276;2023-07-02T01:00:23;100627.97;;;22.37;49.29
64739;BME280;51175;51.186;0.276;2023-07-02T01:00:53;100637.63;;;22.38;49.21
64739;BME280;51175;51.186;0.276;2023-07-02T01:01:27;100632.56;;;22.36;49.43
64739;BME280;51175;51.186;0.276;2023-07-02T01:01:58;100636.06;;;22.37;49.30
64739;BME280;51175;51.186;0.276;2023-07-02T01:02:28;100634.50;;;22.36;49.27
64739;BME280;51175;51.186;0.276;2023-07-02T01:02:59;100636.41;;;22.35;49.19
64739;BME280;51175;51.186;0.276;2023-07-02T01:03:30;100642.56;;;22.36;49.16
64739;BME280;51175;51.186;0.276;2023-07-02T01:04:04;100633.69;;;22.35;49.17
64739;BME280;51175;51.186;0.276;2023-07-02T01:04:35;100643.66;;;22.35;49.36
64739;BME280;51175;51.186;0.276;2023-07-02T01:05:07;100642.91;;;22.34;49.00
64739;BME280;51175;51.186;0.276;2023-07-02T01:05:37;100642.13;;;22.33;49.20
64739;BME280;51175;51.186;0.276;2023-07-02T01:06:08;100642.91;;;22.34;49.10
64739;BME280;51175;51.186;0.276;2023-07-02T01:06:38;100643.66;;;22.35;49.32
64739;BME280;51175;51.186;0.276;2023-07-02T01:07:11;100650.19;;;22.33;49.31
64739;BME280;51175;51.186;0.276;2023-07-02T01:07:42;100647.50;;;22.33;49.28
64739;BME280;51175;51.186;0.276;2023-07-02T01:08:12;100645.13;;;22.32;49.09
64739;BME280;51175;51.186;0.276;2023-07-02T01:08:42;100650.19;;;22.33;49.42
64739;BME280;51175;51.186;0.276;2023-07-02T01:09:13;100647.81;;;22.32;49.17
64739;BME280;51175;51.186;0.276;2023-07-02T01:09:43;100649.38;;;22.33;49.29
64739;BME280;51175;51.186;0.276;2023-07-02T01:10:14;100647.03;;;22.31;49.24
64739;BME280;51175;51.186;0.276;2023-07-02T01:10:44;100649.38;;;22.33;49.36
64739;BME280;51175;51.186;0.276;2023-07-02T01:11:15;100648.59;;;22.32;49.44
64739;BME280;51175;51.186;0.276;2023-07-02T01:11:54;100648.94;;;22.31;49.30
64739;BME280;51175;51.186;0.276;2023-07-02T01:12:26;100644.69;;;22.30;49.48
64739;BME280;51175;51.186;0.276;2023-07-02T01:13:00;100652.41;;;22.31;49.43
64739;BME280;51175;51.186;0.276;2023-07-02T01:13:34;100653.53;;;22.30;49.56
64739;BME280;51175;51.186;0.276;2023-07-02T01:14:09;100650.84;;;22.30;49.33
64739;BME280;51175;51.186;0.276;2023-07-02T01:14:44;100654.66;;;22.29;49.47
64739;BME280;51175;51.186;0.276;2023-07-02T01:15:17;100653.09;;;22.28;49.22
64739;BME280;51175;51.186;0.276;2023-07-02T01:15:48;100653.09;;;22.28;49.51
64739;BME280;51175;51.186;0.276;2023-07-02T01:16:19;100657.66;;;22.28;49.43
64739;BME280;51175;51.186;0.276;2023-07-02T01:16:51;100652.28;;;22.28;49.26
64739;BME280;51175;51.186;0.276;2023-07-02T01:17:23;100651.53;;;22.27;49.38
64739;BME280;51175;51.186;0.276;2023-07-02T01:17:54;100663.06;;;22.28;49.32
64739;BME280;51175;51.186;0.276;2023-07-02T01:18:26;100658.81;;;22.27;49.34
64739;BME280;51175;51.186;0.276;2023-07-02T01:18:56;100661.50;;;22.27;49.28
64739;BME280;51175;51.186;0.276;2023-07-02T01:19:50;100661.50;;;22.27;49.33
64739;BME280;51175;51.186;0.276;2023-07-02T01:20:22;100663.72;;;22.25;49.34
64739;BME280;51175;51.186;0.276;2023-07-02T01:20:52;100657.56;;;22.24;49.46
64739;BME280;51175;51.186;0.276;2023-07-02T01:21:24;100665.31;;;22.26;49.43
64739;BME280;51175;51.186;0.276;2023-07-02T01:21:55;100658.34;;;22.25;49.49
64739;BME280;51175;51.186;0.276;2023-07-02T01:22:29;100659.13;;;22.25;49.22
64739;BME280;51175;51.186;0.276;2023-07-02T01:23:01;100663.72;;;22.25;49.72
64739;BME280;51175;51.186;0.276;2023-07-02T01:23:34;100668.34;;;22.24;49.43
64739;BME280;51175;51.186;0.276;2023-07-02T01:24:04;100659.47;;;22.24;49.43
64739;BME280;51175;51.186;0.276;2023-07-02T01:24:36;100667.53;;;22.24;49.43
64739;BME280;51175;51.186;0.276;2023-07-02T01:25:07;100664.06;;;22.23;49.40
64739;BME280;51175;51.186;0.276;2023-07-02T01:25:39;100666.75;;;22.23;49.54
64739;BME280;51175;51.186;0.276;2023-07-02T01:26:09;100664.84;;;22.24;49.40
64739;BME280;51175;51.186;0.276;2023-07-02T01:26:40;100672.91;;;22.24;49.42
64739;BME280;51175;51.186;0.276;2023-07-02T01:27:10;100665.97;;;22.23;49.41
64739;BME280;51175;51.186;0.276;2023-07-02T01:27:41;100667.88;;;22.22;49.60
64739;BME280;51175;51.186;0.276;2023-07-02T01:28:11;100667.09;;;22.22;49.60
64739;BME280;51175;51.186;0.276;2023-07-02T01:28:43;100667.09;;;22.22;49.45
64739;BME280;51175;51.186;0.276;2023-07-02T01:29:18;100672.47;;;22.22;49.34
64739;BME280;51175;51.186;0.276;2023-07-02T01:29:53;100669.00;;;22.21;49.40
64739;BME280;51175;51.186;0.276;2023-07-02T01:30:24;100673.59;;;22.20;49.63
64739;BME280;51175;51.186;0.276;2023-07-02T01:30:54;100666.66;;;22.19;49.40
64739;BME280;51175;51.186;0.276;2023-07-02T01:31:25;100671.25;;;22.19;49.65
64739;BME280;51175;51.186;0.276;2023-07-02T01:31:56;100667.75;;;22.18;49.63
64739;BME280;51175;51.186;0.276;2023-07-02T01:32:26;100664.28;;;22.18;49.37
64739;BME280;51175;51.186;0.276;2023-07-02T01:32:57;100671.25;;;22.19;49.58
64739;BME280;51175;51.186;0.276;2023-07-02T01:33:27;100665.84;;;22.19;49.45
64739;BME280;51175;51.186;0.276;2023-07-02T01:33:58;100662.38;;;22.18;49.76
64739;BME280;51175;51.186;0.276;2023-07-02T01:34:28;100674.25;;;22.17;49.61
64739;BME280;51175;51.186;0.276;2023-07-02T01:34:59;100668.88;;;22.17;49.54
64739;BME280;51175;51.186;0.276;2023-07-02T01:35:31;100673.13;;;22.18;49.51
64739;BME280;51175;51.186;0.276;2023-07-02T01:36:01;100672.38;;;22.18;49.61
64739;BME280;51175;51.186;0.276;2023-07-02T01:36:31;100671.56;;;22.17;49.59
64739;BME280;51175;51.186;0.276;2023-07-02T01:37:05;100668.09;;;22.17;49.45
64739;BME280;51175;51.186;0.276;2023-07-02T01:37:36;100668.09;;;22.17;49.75
64739;BME280;51175;51.186;0.276;2023-07-02T01:38:07;100675.38;;;22.16;49.68
64739;BME280;51175;51.186;0.276;2023-07-02T01:38:38;100669.22;;;22.16;49.71
64739;BME280;51175;51.186;0.276;2023-07-02T01:39:08;100670.34;;;22.15;49.54
64739;BME280;51175;51.186;0.276;2023-07-02T01:39:39;100675.72;;;22.15;49.70
64739;BME280;51175;51.186;0.276;2023-07-02T01:40:09;100666.88;;;22.14;49.62
64739;BME280;51175;51.186;0.276;2023-07-02T01:40:40;100673.38;;;22.13;49.69
64739;BME280;51175;51.186;0.276;2023-07-02T01:41:10;100669.88;;;22.13;49.82
64739;BME280;51175;51.186;0.276;2023-07-02T01:41:54;100677.16;;;22.12;49.61
64739;BME280;51175;51.186;0.276;2023-07-02T01:42:25;100681.78;;;22.12;49.59
64739;BME280;51175;51.186;0.276;2023-07-02T01:42:55;100683.66;;;22.11;49.71
64739;BME280;51175;51.186;0.276;2023-07-02T01:43:26;100672.91;;;22.11;49.67
64739;BME280;51175;51.186;0.276;2023-07-02T01:43:56;100680.97;;;22.11;49.66
64739;BME280;51175;51.186;0.276;2023-07-02T01:44:26;100676.41;;;22.12;49.62
64739;BME280;51175;51.186;0.276;2023-07-02T01:44:57;100673.72;;;22.12;49.78
64739;BME280;51175;51.186;0.276;2023-07-02T01:45:27;100681.78;;;22.12;49.59
64739;BME280;51175;51.186;0.276;2023-07-02T01:45:58;100680.19;;;22.11;49.66
64739;BME280;51175;51.186;0.276;2023-07-02T01:46:29;100676.41;;;22.12;49.59
64739;BME280;51175;51.186;0.276;2023-07-02T01:46:59;100672.13;;;22.11;49.56
64739;BME280;51175;51.186;0.276;2023-07-02T01:47:30;100679.09;;;22.12;49.69
64739;BME280;51175;51.186;0.276;2023-07-02T01:48:00;100673.72;;;22.12;49.60
64739;BME280;51175;51.186;0.276;2023-07-02T01:48:30;100673.72;;;22.12;49.62
64739;BME280;51175;51.186;0.276;2023-07-02T01:49:01;100680.19;;;22.11;49.64
64739;BME280;51175;51.186;0.276;2023-07-02T01:49:31;100682.88;;;22.11;49.92
64739;BME280;51175;51.186;0.276;2023-07-02T01:50:04;100679.41;;;22.10;49.82
64739;BME280;51175;51.186;0.276;2023-07-02T01:50:35;100679.41;;;22.10;49.93
64739;BME280;51175;51.186;0.276;2023-07-02T01:51:05;100673.25;;;22.10;49.61
64739;BME280;51175;51.186;0.276;2023-07-02T01:51:36;100678.63;;;22.10;49.92
64739;BME280;51175;51.186;0.276;2023-07-02T01:52:08;100677.81;;;22.09;49.66
64739;BME280;51175;51.186;0.276;2023-07-02T01:52:38;100674.03;;;22.10;49.55
64739;BME280;51175;51.186;0.276;2023-07-02T01:53:09;100674.03;;;22.10;49.69
64739;BME280;51175;51.186;0.276;2023-07-02T01:53:39;100667.06;;;22.09;49.61
64739;BME280;51175;51.186;0.276;2023-07-02T01:54:09;100678.63;;;22.10;49.63
64739;BME280;51175;51.186;0.276;2023-07-02T01:54:40;100682.44;;;22.08;49.77
64739;BME280;51175;51.186;0.276;2023-07-02T01:55:10;100673.25;;;22.10;49.92
64739;BME280;51175;51.186;0.276;2023-07-02T01:55:41;100670.88;;;22.08;49.76
64739;BME280;51175;51.186;0.276;2023-07-02T01:56:11;100674.38;;;22.08;49.82
64739;BME280;51175;51.186;0.276;2023-07-02T01:56:42;100668.19;;;22.08;49.63
64739;BME280;51175;51.186;0.276;2023-07-02T01:57:12;100671.69;;;22.08;49.58
64739;BME280;51175;51.186;0.276;2023-07-02T01:57:42;100675.13;;;22.09;49.68
64739;BME280;51175;51.186;0.276;2023-07-02T01:58:13;100669.00;;;22.08;49.51
64739;BME280;51175;51.186;0.276;2023-07-02T01:58:43;100671.69;;;22.08;49.64
64739;BME280;51175;51.186;0.276;2023-07-02T01:59:14;100677.06;;;22.08;49.56
64739;BME280;51175;51.186;0.276;2023-07-02T01:59:45;100678.97;;;22.08;49.68
64739;BME280;51175;51.186;0.276;2023-07-02T02:00:15;100678.16;;;22.07;49.65
64739;BME280;51175;51.186;0.276;2023-07-02T02:00:46;100672.03;;;22.07;49.54
64739;BME280;51175;51.186;0.276;2023-07-02T02:01:16;100667.75;;;22.06;49.78
64739;BME280;51175;51.186;0.276;2023-07-02T02:01:47;100673.13;;;22.06;49.75
64739;BME280;51175;51.186;0.276;2023-07-02T02:02:17;100671.56;;;22.05;49.68
64739;BME280;51175;51.186;0.276;2023-07-02T02:02:48;100669.66;;;22.05;49.82
64739;BME280;51175;51.186;0.276;2023-07-02T02:03:18;100668.88;;;22.05;49.80
64739;BME280;51175;51.186;0.276;2023-07-02T02:03:48;100667.31;;;22.04;49.79
64739;BME280;51175;51.186;0.276;2023-07-02T02:04:19;100678.84;;;22.04;49.67
64739;BME280;51175;51.186;0.276;2023-07-02T02:04:49;100669.19;;;22.03;49.71
64739;BME280;51175;51.186;0.276;2023-07-02T02:05:19;100675.38;;;22.04;49.61
64739;BME280;51175;51.186;0.276;2023-07-02T02:05:50;100672.69;;;22.04;49.69
64739;BME280;51175;51.186;0.276;2023-07-02T02:06:20;100673.44;;;22.04;49.84
64739;BME280;51175;51.186;0.276;2023-07-02T02:06:50;100675.38;;;22.04;49.66
64739;BME280;51175;51.186;0.276;2023-07-02T02:07:22;100671.09;;;22.03;49.80
64739;BME280;51175;51.186;0.276;2023-07-02T02:07:52;100670.34;;;22.02;49.64
64739;BME280;51175;51.186;0.276;2023-07-02T02:08:22;100675.72;;;22.02;49.72
64739;BME280;51175;51.186;0.276;2023-07-02T02:08:53;100680.28;;;22.02;49.74
64739;BME280;51175;51.186;0.276;2023-07-02T02:09:23;100668.75;;;22.01;49.75
64739;BME280;51175;51.186;0.276;2023-07-02T02:09:53;100674.13;;;22.01;49.91
64739;BME280;51175;51.186;0.276;2023-07-02T02:10:24;100672.56;;;22.00;49.98
64739;BME280;51175;51.186;0.276;2023-07-02T02:10:54;100673.34;;;22.01;49.93
64739;BME280;51175;51.186;0.276;2023-07-02T02:11:25;100677.94;;;22.00;49.80
64739;BME280;51175;51.186;0.276;2023-07-02T02:11:55;100672.88;;;21.99;49.62
64739;BME280;51175;51.186;0.276;2023-07-02T02:12:25;100676.34;;;21.99;49.79
64739;BME280;51175;51.186;0.276;2023-07-02T02:12:58;100677.13;;;22.00;49.70
64739;BME280;51175;51.186;0.276;2023-07-02T02:13:29;100679.03;;;21.99;49.99
64739;BME280;51175;51.186;0.276;2023-07-02T02:13:59;100677.47;;;21.98;49.74
64739;BME280;51175;51.186;0.276;2023-07-02T02:14:32;100674.78;;;21.98;49.83
64739;BME280;51175;51.186;0.276;2023-07-02T02:15:03;100674.78;;;21.98;49.94
64739;BME280;51175;51.186;0.276;2023-07-02T02:15:33;100677.47;;;21.98;49.76
64739;BME280;51175;51.186;0.276;2023-07-02T02:16:04;100676.69;;;21.98;49.65
64739;BME280;51175;51.186;0.276;2023-07-02T02:16:34;100677.47;;;21.98;49.73
64739;BME280;51175;51.186;0.276;2023-07-02T02:17:05;100675.91;;;21.97;49.94
64739;BME280;51175;51.186;0.276;2023-07-02T02:17:35;100674.00;;;21.98;49.81
64739;BME280;51175;51.186;0.276;2023-07-02T02:18:06;100675.91;;;21.97;50.01
64739;BME280;51175;51.186;0.276;2023-07-02T02:18:36;100678.59;;;21.97;49.83
64739;BME280;51175;51.186;0.276;2023-07-02T02:19:07;100677.00;;;21.96;49.75
64739;BME280;51175;51.186;0.276;2023-07-02T02:19:37;100674.31;;;21.96;49.88
64739;BME280;51175;51.186;0.276;2023-07-02T02:20:08;100668.94;;;21.96;49.77
64739;BME280;51175;51.186;0.276;2023-07-02T02:20:40;100678.94;;;21.95;49.69
64739;BME280;51175;51.186;0.276;2023-07-02T02:21:11;100679.69;;;21.96;49.66
64739;BME280;51175;51.186;0.276;2023-07-02T02:21:42;100676.25;;;21.95;49.99
64739;BME280;51175;51.186;0.276;2023-07-02T02:22:12;100674.31;;;21.96;49.80
64739;BME280;51175;51.186;0.276;2023-07-02T02:22:43;100673.56;;;21.95;49.86
64739;BME280;51175;51.186;0.276;2023-07-02T02:23:13;100673.56;;;21.95;49.97
64739;BME280;51175;51.186;0.276;2023-07-02T02:23:44;100675.44;;;21.95;49.84
64739;BME280;51175;51.186;0.276;2023-07-02T02:24:14;100675.44;;;21.95;49.79
64739;BME280;51175;51.186;0.276;2023-07-02T02:24:45;100672.75;;;21.95;49.69
64739;BME280;51175;51.186;0.276;2023-07-02T02:25:15;100674.66;;;21.94;49.80
64739;BME280;51175;51.186;0.276;2023-07-02T02:25:45;100674.66;;;21.94;49.66
64739;BME280;51175;51.186;0.276;2023-07-02T02:26:16;100675.78;;;21.93;49.76
64739;BME280;51175;51.186;0.276;2023-07-02T02:26:46;100678.47;;;21.93;49.75
64739;BME280;51175;51.186;0.276;2023-07-02T02:27:17;100666.16;;;21.92;49.77
64739;BME280;51175;51.186;0.276;2023-07-02T02:27:47;100678.47;;;21.93;49.83
64739;BME280;51175;51.186;0.276;2023-07-02T02:28:17;100676.13;;;21.92;49.96
64739;BME280;51175;51.186;0.276;2023-07-02T02:28:49;100666.50;;;21.91;49.97
64739;BME280;51175;51.186;0.276;2023-07-02T02:29:22;100676.13;;;21.92;49.60
64739;BME280;51175;51.186;0.276;2023-07-02T02:29:53;100669.19;;;21.91;49.81
64739;BME280;51175;51.186;0.276;2023-07-02T02:30:23;100677.25;;;21.91;49.77
64739;BME280;51175;51.186;0.276;2023-07-02T02:30:53;100678.34;;;21.90;50.10
64739;BME280;51175;51.186;0.276;2023-07-02T02:31:24;100678.34;;;21.90;49.98
64739;BME280;51175;51.186;0.276;2023-07-02T02:31:54;100677.59;;;21.89;49.93
64739;BME280;51175;51.186;0.276;2023-07-02T02:32:24;100678.69;;;21.88;50.07
64739;BME280;51175;51.186;0.276;2023-07-02T02:32:55;100678.69;;;21.88;49.73
64739;BME280;51175;51.186;0.276;2023-07-02T02:33:26;100678.69;;;21.88;49.98
64739;BME280;51175;51.186;0.276;2023-07-02T02:33:56;100674.44;;;21.87;49.73
64739;BME280;51175;51.186;0.276;2023-07-02T02:34:26;100682.50;;;21.87;50.03
64739;BME280;51175;51.186;0.276;2023-07-02T02:34:59;100681.69;;;21.87;49.83
64739;BME280;51175;51.186;0.276;2023-07-02T02:35:29;100679.00;;;21.87;49.72
64739;BME280;51175;51.186;0.276;2023-07-02T02:35:59;100680.94;;;21.86;49.90
64739;BME280;51175;51.186;0.276;2023-07-02T02:36:30;100685.50;;;21.86;50.10
64739;BME280;51175;51.186;0.276;2023-07-02T02:37:00;100680.94;;;21.86;50.01
64739;BME280;51175;51.186;0.276;2023-07-02T02:37:30;100680.94;;;21.86;49.83
64739;BME280;51175;51.186;0.276;2023-07-02T02:38:03;100685.50;;;21.86;49.94
64739;BME280;51175;51.186;0.276;2023-07-02T02:38:34;100682.03;;;21.85;49.74
64739;BME280;51175;51.186;0.276;2023-07-02T02:39:07;100690.09;;;21.85;50.07
64739;BME280;51175;51.186;0.276;2023-07-02T02:39:37;100683.94;;;21.85;49.96
64739;BME280;51175;51.186;0.276;2023-07-02T02:40:08;100683.16;;;21.84;50.07
64739;BME280;51175;51.186;0.276;2023-07-02T02:40:41;100684.72;;;21.85;49.85
64739;BME280;51175;51.186;0.276;2023-07-02T02:41:12;100687.41;;;21.85;49.94
64739;BME280;51175;51.186;0.276;2023-07-02T02:41:42;100686.66;;;21.85;50.03
64739;BME280;51175;51.186;0.276;2023-07-02T02:42:13;100685.84;;;21.84;50.02
64739;BME280;51175;51.186;0.276;2023-07-02T02:42:43;100687.75;;;21.83;49.65